createdAt,value
2019-05-21T00:00:59.110Z,46.45
2019-05-21T00:01:59.092Z,43.40
2019-05-21T00:02:59.079Z,47.60
2019-05-21T00:03:59.071Z,40.37
2019-05-21T00:04:59.058Z,39.90
2019-05-21T00:05:59.048Z,39.29
2019-05-21T00:06:59.413Z,39.92
2019-05-21T00:07:59.025Z,41.46
2019-05-21T00:08:59.017Z,47.06
2019-05-21T00:09:59.022Z,44.82
2019-05-21T00:10:59.032Z,47.93
2019-05-21T00:11:59.035Z,42.57
2019-05-21T00:12:58.966Z,46.91
2019-05-21T00:13:58.956Z,46.84
2019-05-21T00:14:59.051Z,47.97
2019-05-21T00:15:58.932Z,41.37
2019-05-21T00:16:58.924Z,41.97
2019-05-21T00:17:58.927Z,47.25
2019-05-21T00:18:58.899Z,43.94
2019-05-21T00:19:58.892Z,42.15
2019-05-21T00:20:58.884Z,44.59
2019-05-21T00:21:58.864Z,47.78
2019-05-21T00:22:58.855Z,48.19
2019-05-21T00:23:58.844Z,40.53
2019-05-21T00:24:58.828Z,43.43
2019-05-21T00:25:58.821Z,44.42
2019-05-21T00:26:58.811Z,44.56
2019-05-21T00:27:58.795Z,44.93
2019-05-21T00:28:58.805Z,48.51
2019-05-21T00:29:58.787Z,44.56
2019-05-21T00:30:58.760Z,48.91
2019-05-21T00:31:58.744Z,53.25
2019-05-21T00:32:58.747Z,45.49
2019-05-21T00:33:58.790Z,47.50
2019-05-21T00:34:58.733Z,52.06
2019-05-21T00:35:58.707Z,42.48
2019-05-21T00:36:58.713Z,44.21
2019-05-21T00:37:58.684Z,44.28
2019-05-21T00:38:58.675Z,45.54
2019-05-21T00:39:58.696Z,45.93
2019-05-21T00:40:58.643Z,41.57
2019-05-21T00:41:58.637Z,49.35
2019-05-21T00:42:58.630Z,50.47
2019-05-21T00:43:58.609Z,49.09
2019-05-21T00:44:58.633Z,47.08
2019-05-21T00:45:58.590Z,44.60
2019-05-21T00:46:58.584Z,47.27
2019-05-21T00:47:58.568Z,44.96
2019-05-21T00:48:58.566Z,49.55
2019-05-21T00:49:58.545Z,47.75
2019-05-21T00:50:58.560Z,49.45
2019-05-21T00:52:07.168Z,54.60
2019-05-21T00:52:59.506Z,54.26
2019-05-21T00:53:58.523Z,54.62
2019-05-21T00:54:58.488Z,48.93
2019-05-21T00:55:58.485Z,51.38
2019-05-21T00:56:58.526Z,50.87
2019-05-21T00:57:58.453Z,48.98
2019-05-21T00:58:58.444Z,52.17
2019-05-21T00:59:58.441Z,46.96
2019-05-21T01:00:58.426Z,47.66
2019-05-21T01:01:58.436Z,43.51
2019-05-21T01:02:58.398Z,50.34
2019-05-21T01:03:58.385Z,47.40
2019-05-21T01:05:01.027Z,46.82
2019-05-21T01:05:58.362Z,53.20
2019-05-21T01:06:58.362Z,52.31
2019-05-21T01:07:58.337Z,52.66
2019-05-21T01:08:58.359Z,50.59
2019-05-21T01:09:58.314Z,49.04
2019-05-21T01:10:58.347Z,49.97
2019-05-21T01:11:58.297Z,50.35
2019-05-21T01:12:58.305Z,53.36
2019-05-21T01:13:58.270Z,52.93
2019-05-21T01:14:58.252Z,46.49
2019-05-21T01:15:58.250Z,50.02
2019-05-21T01:16:58.236Z,52.72
2019-05-21T01:17:58.226Z,56.47
2019-05-21T01:18:58.236Z,53.85
2019-05-21T01:19:58.200Z,51.02
2019-05-21T01:20:58.185Z,57.11
2019-05-21T01:21:58.204Z,50.65
2019-05-21T01:22:58.176Z,52.77
2019-05-21T01:23:58.191Z,50.86
2019-05-21T01:24:58.149Z,52.28
2019-05-21T01:25:58.132Z,51.43
2019-05-21T01:26:58.118Z,49.73
2019-05-21T01:27:58.125Z,53.11
2019-05-21T01:28:58.094Z,51.34
2019-05-21T01:29:58.086Z,52.12
2019-05-21T01:30:58.077Z,49.97
2019-05-21T01:31:58.079Z,47.50
2019-05-21T01:32:58.067Z,50.59
2019-05-21T01:33:58.038Z,50.18
2019-05-21T01:34:58.079Z,50.85
2019-05-21T01:35:58.016Z,47.65
2019-05-21T01:36:58.006Z,54.25
2019-05-21T01:37:57.994Z,47.52
2019-05-21T01:38:58.021Z,51.25
2019-05-21T01:39:57.981Z,49.59
2019-05-21T01:40:57.995Z,50.15
2019-05-21T01:41:57.978Z,44.00
2019-05-21T01:42:57.932Z,45.36
2019-05-21T01:43:57.944Z,53.81
2019-05-21T01:44:57.921Z,47.81
2019-05-21T01:45:57.907Z,47.87
2019-05-21T01:46:57.887Z,46.30
2019-05-21T01:47:57.876Z,46.31
2019-05-21T01:48:57.866Z,42.92
2019-05-21T01:49:57.854Z,47.45
2019-05-21T01:50:57.863Z,48.27
2019-05-21T01:51:57.846Z,45.30
2019-05-21T01:52:57.820Z,50.83
2019-05-21T01:53:57.812Z,48.25
2019-05-21T01:54:57.811Z,53.02
2019-05-21T01:55:57.784Z,55.14
2019-05-21T01:56:57.780Z,52.39
2019-05-21T01:57:57.764Z,49.74
2019-05-21T01:58:57.751Z,48.81
2019-05-21T01:59:57.744Z,48.40
2019-05-21T02:00:57.807Z,53.99
2019-05-21T02:01:57.731Z,50.68
2019-05-21T02:02:57.731Z,50.30
2019-05-21T02:03:57.699Z,46.86
2019-05-21T02:04:57.688Z,47.64
2019-05-21T02:05:57.679Z,49.80
2019-05-21T02:06:57.657Z,48.47
2019-05-21T02:07:57.652Z,48.36
2019-05-21T02:08:57.637Z,51.21
2019-05-21T02:09:57.647Z,51.83
2019-05-21T02:10:57.637Z,50.30
2019-05-21T02:11:57.608Z,49.41
2019-05-21T02:12:57.599Z,52.10
2019-05-21T02:13:57.585Z,51.50
2019-05-21T02:14:57.570Z,52.63
2019-05-21T02:15:57.568Z,52.28
2019-05-21T02:16:57.547Z,48.53
2019-05-21T02:17:57.527Z,52.37
2019-05-21T02:18:57.548Z,48.89
2019-05-21T02:19:57.550Z,48.14
2019-05-21T02:20:57.500Z,50.28
2019-05-21T02:21:57.487Z,50.43
2019-05-21T02:22:58.298Z,49.90
2019-05-21T02:23:57.469Z,52.42
2019-05-21T02:24:57.478Z,51.14
2019-05-21T02:25:57.454Z,50.17
2019-05-21T02:26:57.425Z,53.59
2019-05-21T02:27:57.424Z,53.18
2019-05-21T02:28:57.413Z,50.48
2019-05-21T02:29:57.412Z,52.71
2019-05-21T02:30:57.401Z,53.24
2019-05-21T02:31:57.377Z,50.92
2019-05-21T02:32:57.365Z,50.88
2019-05-21T02:33:57.377Z,50.55
2019-05-21T02:34:57.341Z,49.87
2019-05-21T02:35:57.336Z,55.28
2019-05-21T02:36:57.325Z,52.47
2019-05-21T02:37:57.315Z,53.86
2019-05-21T02:38:57.302Z,51.42
2019-05-21T02:39:57.282Z,49.03
2019-05-21T02:40:57.277Z,52.59
2019-05-21T02:41:57.288Z,52.20
2019-05-21T02:42:57.244Z,47.81
2019-05-21T02:43:57.236Z,48.86
2019-05-21T02:44:57.244Z,50.44
2019-05-21T02:45:57.220Z,53.25
2019-05-21T02:46:57.218Z,52.81
2019-05-21T02:47:57.189Z,51.34
2019-05-21T02:48:57.193Z,51.45
2019-05-21T02:49:57.175Z,49.90
2019-05-21T02:50:57.174Z,50.61
2019-05-21T02:51:57.154Z,52.98
2019-05-21T02:52:57.149Z,50.18
2019-05-21T02:53:57.321Z,51.61
2019-05-21T02:54:57.121Z,55.94
2019-05-21T02:55:57.114Z,53.51
2019-05-21T02:56:57.096Z,53.39
2019-05-21T02:57:57.092Z,55.30
2019-05-21T02:58:57.100Z,50.31
2019-05-21T02:59:57.061Z,52.40
2019-05-21T03:00:57.049Z,54.39
2019-05-21T03:01:57.043Z,54.46
2019-05-21T03:02:57.020Z,52.06
2019-05-21T03:03:57.028Z,56.93
2019-05-21T03:04:56.999Z,52.74
2019-05-21T03:06:12.488Z,50.69
2019-05-21T03:06:57.976Z,55.65
2019-05-21T03:07:56.996Z,54.13
2019-05-21T03:08:56.970Z,53.57
2019-05-21T03:09:56.943Z,51.46
2019-05-21T03:10:56.942Z,52.51
2019-05-21T03:11:56.916Z,52.94
2019-05-21T03:12:56.909Z,50.25
2019-05-21T03:13:56.893Z,53.77
2019-05-21T03:14:56.914Z,53.18
2019-05-21T03:15:56.885Z,52.52
2019-05-21T03:16:56.877Z,53.85
2019-05-21T03:17:57.096Z,54.04
2019-05-21T03:18:56.841Z,51.17
2019-05-21T03:19:56.855Z,53.45
2019-05-21T03:20:56.814Z,52.52
2019-05-21T03:21:56.802Z,50.52
2019-05-21T03:22:56.801Z,46.95
2019-05-21T03:23:56.798Z,48.92
2019-05-21T03:25:01.380Z,47.19
2019-05-21T03:25:57.756Z,50.09
2019-05-21T03:26:56.753Z,51.67
2019-05-21T03:27:56.736Z,51.58
2019-05-21T03:28:56.744Z,48.23
2019-05-21T03:29:56.722Z,49.55
2019-05-21T03:30:56.699Z,49.70
2019-05-21T03:31:56.703Z,49.68
2019-05-21T03:32:56.682Z,52.53
2019-05-21T03:33:56.661Z,51.20
2019-05-21T03:34:56.675Z,55.02
2019-05-21T03:35:56.677Z,50.69
2019-05-21T03:36:56.700Z,48.39
2019-05-21T03:37:56.629Z,51.23
2019-05-21T03:38:56.622Z,50.10
2019-05-21T03:39:56.602Z,53.14
2019-05-21T03:40:56.592Z,48.59
2019-05-21T03:41:56.584Z,53.43
2019-05-21T03:42:56.587Z,50.51
2019-05-21T03:43:56.558Z,48.91
2019-05-21T03:45:00.364Z,48.99
2019-05-21T03:45:56.589Z,48.25
2019-05-21T03:46:56.527Z,50.08
2019-05-21T03:47:56.524Z,54.17
2019-05-21T03:48:56.494Z,52.08
2019-05-21T03:49:56.487Z,50.80
2019-05-21T03:50:56.474Z,53.79
2019-05-21T03:51:56.476Z,53.04
2019-05-21T03:52:56.485Z,51.70
2019-05-21T03:53:57.215Z,51.20
2019-05-21T03:54:56.461Z,53.80
2019-05-21T03:55:56.608Z,53.92
2019-05-21T03:56:56.455Z,53.63
2019-05-21T03:57:56.405Z,51.18
2019-05-21T03:58:56.463Z,49.75
2019-05-21T03:59:56.389Z,54.19
2019-05-21T04:00:56.358Z,50.24
2019-05-21T04:01:56.361Z,49.96
2019-05-21T04:02:56.366Z,52.12
2019-05-21T04:03:56.331Z,54.20
2019-05-21T04:04:56.333Z,55.42
2019-05-21T04:05:56.318Z,51.35
2019-05-21T04:06:56.301Z,53.80
2019-05-21T04:07:56.303Z,53.13
2019-05-21T04:08:56.371Z,53.22
2019-05-21T04:09:56.270Z,50.40
2019-05-21T04:10:56.252Z,50.93
2019-05-21T04:11:56.240Z,54.16
2019-05-21T04:12:56.247Z,50.60
2019-05-21T04:13:56.228Z,53.85
2019-05-21T04:14:56.206Z,50.03
2019-05-21T04:15:56.210Z,51.11
2019-05-21T04:16:56.287Z,55.03
2019-05-21T04:17:56.166Z,48.51
2019-05-21T04:18:56.229Z,51.86
2019-05-21T04:19:56.151Z,47.21
2019-05-21T04:20:56.149Z,48.50
2019-05-21T04:21:56.136Z,51.55
2019-05-21T04:22:56.125Z,47.10
2019-05-21T04:23:56.101Z,52.31
2019-05-21T04:24:56.090Z,51.51
2019-05-21T04:25:56.077Z,49.88
2019-05-21T04:26:56.074Z,49.38
2019-05-21T04:27:56.082Z,48.24
2019-05-21T04:28:56.253Z,45.92
2019-05-21T04:29:56.036Z,50.28
2019-05-21T04:30:56.018Z,47.37
2019-05-21T04:31:56.040Z,49.89
2019-05-21T04:32:56.007Z,50.50
2019-05-21T04:33:55.980Z,51.29
2019-05-21T04:34:55.982Z,46.69
2019-05-21T04:35:55.963Z,51.42
2019-05-21T04:37:09.792Z,47.70
2019-05-21T04:37:56.945Z,49.99
2019-05-21T04:38:55.987Z,49.40
2019-05-21T04:39:55.941Z,47.47
2019-05-21T04:40:55.912Z,49.37
2019-05-21T04:41:55.899Z,48.76
2019-05-21T04:42:55.892Z,44.75
2019-05-21T04:43:55.883Z,48.69
2019-05-21T04:44:55.904Z,46.72
2019-05-21T04:45:55.951Z,47.78
2019-05-21T04:46:55.846Z,45.28
2019-05-21T04:47:55.870Z,45.22
2019-05-21T04:48:55.871Z,48.05
2019-05-21T04:49:55.820Z,43.99
2019-05-21T04:50:55.877Z,46.84
2019-05-21T04:51:55.786Z,45.52
2019-05-21T04:52:55.778Z,47.36
2019-05-21T04:53:55.782Z,46.83
2019-05-21T04:54:55.757Z,46.55
2019-05-21T04:55:55.732Z,44.81
2019-05-21T04:56:55.729Z,44.21
2019-05-21T04:57:55.734Z,48.86
2019-05-21T04:58:55.710Z,43.15
2019-05-21T04:59:55.708Z,49.19
2019-05-21T05:00:55.702Z,41.54
2019-05-21T05:01:55.671Z,44.44
2019-05-21T05:02:55.664Z,51.69
2019-05-21T05:03:55.676Z,52.36
2019-05-21T05:04:55.634Z,54.47
2019-05-21T05:05:55.636Z,56.87
2019-05-21T05:06:55.616Z,54.89
2019-05-21T05:07:55.607Z,50.14
2019-05-21T05:08:55.597Z,54.57
2019-05-21T05:09:55.581Z,62.74
2019-05-21T05:10:55.577Z,60.98
2019-05-21T05:11:55.565Z,65.48
2019-05-21T05:12:55.554Z,66.76
2019-05-21T05:13:55.540Z,57.45
2019-05-21T05:14:55.528Z,67.82
2019-05-21T05:15:55.511Z,63.75
2019-05-21T05:16:55.518Z,73.08
2019-05-21T05:17:55.499Z,71.03
2019-05-21T05:18:55.484Z,70.49
2019-05-21T05:19:55.471Z,74.09
2019-05-21T05:20:55.461Z,72.42
2019-05-21T05:21:55.448Z,77.12
2019-05-21T05:22:55.438Z,78.35
2019-05-21T05:23:55.481Z,71.53
2019-05-21T05:24:55.409Z,64.05
2019-05-21T05:25:55.417Z,68.70
2019-05-21T05:26:55.391Z,76.34
2019-05-21T05:27:55.385Z,75.17
2019-05-21T05:28:55.402Z,75.11
2019-05-21T05:29:55.360Z,69.23
2019-05-21T05:30:55.351Z,68.25
2019-05-21T05:31:55.336Z,64.69
2019-05-21T05:32:55.324Z,67.74
2019-05-21T05:33:55.325Z,75.23
2019-05-21T05:34:55.449Z,76.00
2019-05-21T05:35:55.295Z,68.08
2019-05-21T05:36:55.280Z,70.42
2019-05-21T05:37:55.269Z,72.69
2019-05-21T05:38:55.281Z,72.49
2019-05-21T05:39:55.281Z,71.66
2019-05-21T05:40:55.254Z,68.27
2019-05-21T05:41:55.223Z,67.83
2019-05-21T05:42:55.240Z,64.83
2019-05-21T05:43:55.208Z,64.05
2019-05-21T05:44:55.199Z,63.67
2019-05-21T05:45:55.195Z,62.36
2019-05-21T05:46:55.165Z,61.38
2019-05-21T05:47:55.156Z,58.35
2019-05-21T05:48:55.144Z,60.20
2019-05-21T05:49:55.151Z,59.00
2019-05-21T05:50:55.140Z,58.58
2019-05-21T05:51:55.138Z,58.37
2019-05-21T05:52:55.108Z,57.75
2019-05-21T05:53:55.092Z,57.83
2019-05-21T05:54:55.092Z,54.94
2019-05-21T05:55:55.076Z,50.95
2019-05-21T05:56:55.062Z,46.37
2019-05-21T05:57:55.043Z,26.05
2019-05-21T05:58:55.036Z,49.76
2019-05-21T05:59:55.025Z,47.26
2019-05-21T06:00:55.018Z,43.79
2019-05-21T06:01:55.007Z,47.89
2019-05-21T06:02:55.030Z,45.11
2019-05-21T06:03:55.019Z,45.36
2019-05-21T06:04:54.966Z,47.25
2019-05-21T06:05:54.975Z,42.81
2019-05-21T06:06:54.941Z,39.04
2019-05-21T06:07:59.826Z,45.70
2019-05-21T06:08:55.919Z,44.57
2019-05-21T06:09:54.913Z,40.51
2019-05-21T06:10:54.901Z,45.48
2019-05-21T06:11:54.887Z,42.11
2019-05-21T06:12:54.875Z,41.56
2019-05-21T06:13:54.868Z,43.28
2019-05-21T06:14:54.856Z,40.19
2019-05-21T06:15:54.939Z,38.39
2019-05-21T06:16:54.832Z,40.29
2019-05-21T06:17:54.837Z,39.25
2019-05-21T06:18:54.812Z,44.14
2019-05-21T06:19:54.898Z,38.26
2019-05-21T06:20:54.784Z,40.05
2019-05-21T06:21:54.777Z,39.96
2019-05-21T06:22:54.759Z,38.11
2019-05-21T06:23:54.764Z,40.43
2019-05-21T06:24:54.756Z,38.43
2019-05-21T06:25:54.853Z,31.22
2019-05-21T06:26:54.738Z,41.82
2019-05-21T06:27:54.715Z,42.32
2019-05-21T06:28:55.290Z,35.58
2019-05-21T06:29:54.685Z,39.72
2019-05-21T06:30:54.685Z,42.52
2019-05-21T06:31:54.750Z,38.77
2019-05-21T06:32:54.651Z,40.75
2019-05-21T06:33:54.647Z,36.00
2019-05-21T06:34:54.629Z,30.29
2019-05-21T06:35:54.621Z,32.35
2019-05-21T06:36:54.602Z,34.05
2019-05-21T06:37:54.591Z,38.78
2019-05-21T06:38:54.582Z,32.99
2019-05-21T06:39:54.585Z,33.67
2019-05-21T06:40:54.577Z,37.73
2019-05-21T06:41:54.567Z,38.18
2019-05-21T06:42:54.564Z,38.99
2019-05-21T06:43:54.531Z,37.65
2019-05-21T06:44:54.539Z,39.48
2019-05-21T06:45:54.504Z,45.60
2019-05-21T06:46:54.499Z,36.16
2019-05-21T06:47:54.563Z,38.74
2019-05-21T06:48:54.563Z,44.78
2019-05-21T06:49:54.457Z,38.32
2019-05-21T06:50:54.445Z,35.70
2019-05-21T06:51:54.434Z,39.21
2019-05-21T06:52:54.439Z,40.30
2019-05-21T06:53:54.411Z,39.35
2019-05-21T06:54:54.469Z,34.69
2019-05-21T06:55:54.402Z,31.91
2019-05-21T06:56:54.370Z,30.54
2019-05-21T06:57:54.391Z,40.06
2019-05-21T06:58:54.393Z,44.44
2019-05-21T06:59:54.394Z,37.89
2019-05-21T07:00:54.338Z,40.87
2019-05-21T07:01:54.320Z,39.18
2019-05-21T07:02:54.313Z,34.09
2019-05-21T07:03:54.318Z,33.13
2019-05-21T07:04:54.297Z,32.38
2019-05-21T07:05:58.990Z,36.55
2019-05-21T07:06:55.263Z,32.12
2019-05-21T07:07:54.251Z,33.20
2019-05-21T07:08:54.250Z,32.55
2019-05-21T07:09:54.223Z,38.29
2019-05-21T07:10:54.210Z,33.60
2019-05-21T07:11:54.218Z,34.40
2019-05-21T07:12:54.189Z,34.61
2019-05-21T07:13:54.184Z,28.92
2019-05-21T07:14:54.188Z,27.89
2019-05-21T07:15:54.173Z,31.04
2019-05-21T07:16:54.146Z,23.34
2019-05-21T07:17:54.151Z,24.01
2019-05-21T07:18:54.163Z,24.84
2019-05-21T07:19:54.132Z,29.96
2019-05-21T07:20:54.118Z,30.27
2019-05-21T07:21:54.166Z,35.46
2019-05-21T07:22:54.167Z,28.97
2019-05-21T07:23:54.898Z,37.22
2019-05-21T07:24:54.056Z,34.86
2019-05-21T07:25:54.046Z,36.84
2019-05-21T07:26:54.040Z,33.64
2019-05-21T07:27:54.018Z,41.29
2019-05-21T07:28:55.381Z,35.41
2019-05-21T07:29:54.001Z,39.08
2019-05-21T07:30:53.994Z,34.93
2019-05-21T07:31:54.032Z,42.48
2019-05-21T07:32:54.051Z,36.88
2019-05-21T07:33:53.966Z,34.29
2019-05-21T07:34:53.965Z,35.20
2019-05-21T07:35:53.961Z,34.22
2019-05-21T07:36:53.933Z,29.98
2019-05-21T07:37:53.910Z,31.63
2019-05-21T07:38:54.387Z,32.05
2019-05-21T07:39:53.886Z,29.82
2019-05-21T07:40:53.878Z,29.09
2019-05-21T07:41:53.872Z,37.26
2019-05-21T07:42:53.879Z,26.38
2019-05-21T07:43:53.836Z,24.66
2019-05-21T07:44:53.831Z,33.62
2019-05-21T07:45:53.842Z,34.68
2019-05-21T07:46:53.807Z,37.41
2019-05-21T07:47:53.801Z,32.32
2019-05-21T07:48:53.782Z,24.76
2019-05-21T07:49:53.773Z,36.03
2019-05-21T07:50:53.897Z,28.60
2019-05-21T07:51:53.774Z,24.67
2019-05-21T07:52:53.751Z,32.88
2019-05-21T07:53:53.775Z,33.22
2019-05-21T07:54:53.717Z,28.15
2019-05-21T07:55:53.706Z,31.70
2019-05-21T07:56:53.750Z,36.79
2019-05-21T07:57:53.695Z,41.22
2019-05-21T07:58:53.685Z,30.62
2019-05-21T07:59:53.659Z,26.27
2019-05-21T08:00:53.654Z,22.48
2019-05-21T08:01:53.636Z,16.02
2019-05-21T08:02:53.639Z,21.82
2019-05-21T08:03:53.751Z,24.80
2019-05-21T08:04:53.606Z,32.37
2019-05-21T08:05:53.587Z,39.36
2019-05-21T08:06:53.605Z,31.76
2019-05-21T08:07:53.566Z,24.67
2019-05-21T08:09:11.367Z,32.16
2019-05-21T08:09:54.543Z,27.46
2019-05-21T08:10:53.543Z,31.05
2019-05-21T08:11:53.555Z,27.96
2019-05-21T08:12:53.526Z,36.59
2019-05-21T08:13:53.513Z,25.53
2019-05-21T08:14:53.516Z,23.19
2019-05-21T08:15:53.511Z,16.36
2019-05-21T08:16:53.469Z,34.30
2019-05-21T08:17:53.470Z,30.41
2019-05-21T08:18:53.482Z,31.39
2019-05-21T08:19:53.439Z,36.34
2019-05-21T08:20:53.433Z,38.53
2019-05-21T08:21:53.425Z,31.28
2019-05-21T08:22:53.534Z,31.55
2019-05-21T08:23:53.390Z,32.14
2019-05-21T08:24:53.382Z,31.49
2019-05-21T08:25:53.362Z,30.99
2019-05-21T08:26:53.376Z,31.26
2019-05-21T08:27:53.352Z,32.45
2019-05-21T08:28:53.333Z,41.21
2019-05-21T08:29:53.321Z,39.05
2019-05-21T08:30:53.308Z,35.26
2019-05-21T08:31:53.301Z,31.30
2019-05-21T08:32:53.291Z,27.66
2019-05-21T08:33:53.273Z,30.48
2019-05-21T08:34:53.262Z,26.20
2019-05-21T08:35:53.284Z,33.62
2019-05-21T08:36:53.240Z,35.98
2019-05-21T08:37:53.232Z,39.31
2019-05-21T08:38:53.216Z,39.51
2019-05-21T08:39:53.209Z,38.43
2019-05-21T08:40:53.189Z,39.31
2019-05-21T08:41:53.200Z,34.79
2019-05-21T08:42:53.176Z,43.40
2019-05-21T08:43:53.171Z,40.09
2019-05-21T08:44:53.151Z,31.64
2019-05-21T08:45:53.142Z,34.21
2019-05-21T08:46:53.129Z,33.28
2019-05-21T08:47:53.111Z,37.74
2019-05-21T08:48:53.106Z,28.55
2019-05-21T08:49:53.114Z,17.22
2019-05-21T08:50:53.089Z,15.23
2019-05-21T08:51:53.136Z,12.54
2019-05-21T08:52:53.076Z,24.39
2019-05-21T08:53:53.047Z,25.23
2019-05-21T08:55:05.911Z,26.92
2019-05-21T08:55:54.023Z,29.17
2019-05-21T08:56:53.016Z,31.51
2019-05-21T08:58:06.581Z,28.93
2019-05-21T08:58:54.038Z,32.67
2019-05-21T08:59:52.990Z,38.49
2019-05-21T09:00:52.975Z,31.15
2019-05-21T09:01:52.998Z,24.45
2019-05-21T09:02:52.953Z,21.10
2019-05-21T09:03:52.958Z,19.44
2019-05-21T09:04:52.927Z,18.97
2019-05-21T09:05:52.922Z,17.23
2019-05-21T09:06:52.905Z,22.76
2019-05-21T09:07:54.116Z,32.17
2019-05-21T09:08:52.880Z,32.16
2019-05-21T09:09:52.899Z,27.66
2019-05-21T09:10:52.854Z,30.93
2019-05-21T09:11:52.851Z,36.63
2019-05-21T09:12:52.841Z,27.75
2019-05-21T09:13:52.874Z,35.37
2019-05-21T09:14:52.820Z,28.00
2019-05-21T09:15:52.807Z,27.82
2019-05-21T09:16:52.810Z,22.78
2019-05-21T09:17:52.798Z,35.91
2019-05-21T09:18:52.767Z,29.24
2019-05-21T09:19:52.755Z,35.22
2019-05-21T09:20:52.758Z,37.24
2019-05-21T09:21:52.734Z,36.69
2019-05-21T09:22:52.734Z,34.95
2019-05-21T09:23:52.712Z,27.99
2019-05-21T09:24:52.704Z,29.90
2019-05-21T09:25:52.691Z,28.64
2019-05-21T09:26:52.681Z,30.70
2019-05-21T09:27:52.665Z,28.68
2019-05-21T09:28:52.683Z,25.07
2019-05-21T09:29:52.650Z,25.17
2019-05-21T09:30:52.654Z,18.22
2019-05-21T09:31:52.645Z,18.16
2019-05-21T09:32:52.614Z,25.99
2019-05-21T09:33:52.610Z,17.29
2019-05-21T09:34:52.614Z,32.38
2019-05-21T09:35:52.575Z,24.40
2019-05-21T09:36:52.569Z,13.54
2019-05-21T09:37:52.579Z,22.81
2019-05-21T09:38:52.569Z,22.84
2019-05-21T09:39:52.575Z,27.85
2019-05-21T09:40:52.570Z,28.85
2019-05-21T09:41:52.513Z,28.21
2019-05-21T09:42:52.498Z,33.79
2019-05-21T09:43:52.490Z,24.93
2019-05-21T09:44:52.485Z,23.41
2019-05-21T09:45:52.502Z,40.62
2019-05-21T09:46:52.451Z,36.58
2019-05-21T09:47:52.445Z,35.64
2019-05-21T09:48:54.281Z,34.88
2019-05-21T09:49:52.425Z,31.40
2019-05-21T09:50:52.412Z,28.44
2019-05-21T09:51:52.416Z,28.05
2019-05-21T09:52:52.465Z,22.65
2019-05-21T09:53:52.383Z,21.26
2019-05-21T09:54:52.389Z,24.01
2019-05-21T09:55:52.394Z,14.74
2019-05-21T09:56:52.345Z,13.86
2019-05-21T09:57:52.372Z,10.55
2019-05-21T09:58:52.320Z,21.32
2019-05-21T09:59:52.310Z,7.00
2019-05-21T10:00:52.298Z,6.28
2019-05-21T10:01:52.306Z,2.08
2019-05-21T10:02:52.292Z,7.70
2019-05-21T10:03:52.270Z,10.53
2019-05-21T10:04:52.259Z,10.47
2019-05-21T10:05:52.252Z,26.05
2019-05-21T10:06:52.236Z,12.52
2019-05-21T10:07:52.233Z,19.44
2019-05-21T10:08:52.210Z,7.86
2019-05-21T10:09:52.200Z,15.04
2019-05-21T10:10:52.188Z,18.92
2019-05-21T10:11:52.172Z,15.48
2019-05-21T10:12:52.172Z,28.35
2019-05-21T10:13:52.163Z,26.43
2019-05-21T10:14:52.148Z,29.85
2019-05-21T10:15:52.130Z,9.75
2019-05-21T10:16:52.118Z,26.76
2019-05-21T10:17:52.110Z,20.11
2019-05-21T10:18:52.118Z,31.25
2019-05-21T10:19:52.103Z,30.87
2019-05-21T10:20:52.095Z,34.83
2019-05-21T10:21:52.067Z,21.86
2019-05-21T10:22:52.072Z,13.12
2019-05-21T10:23:52.043Z,23.96
2019-05-21T10:24:52.057Z,19.68
2019-05-21T10:25:52.048Z,20.51
2019-05-21T10:26:52.008Z,16.79
2019-05-21T10:27:51.993Z,25.98
2019-05-21T10:28:51.984Z,28.44
2019-05-21T10:29:51.983Z,23.33
2019-05-21T10:30:52.011Z,18.53
2019-05-21T10:31:51.948Z,30.21
2019-05-21T10:32:51.936Z,15.67
2019-05-21T10:33:51.937Z,23.80
2019-05-21T10:34:51.939Z,21.41
2019-05-21T10:35:51.949Z,28.92
2019-05-21T10:36:51.898Z,24.64
2019-05-21T10:37:54.938Z,30.35
2019-05-21T10:38:51.871Z,18.82
2019-05-21T10:39:51.861Z,27.39
2019-05-21T10:40:51.852Z,11.95
2019-05-21T10:41:51.849Z,21.09
2019-05-21T10:42:51.846Z,34.76
2019-05-21T10:43:51.846Z,35.38
2019-05-21T10:44:51.803Z,24.12
2019-05-21T10:45:51.805Z,24.92
2019-05-21T10:46:51.805Z,30.90
2019-05-21T10:47:51.766Z,29.30
2019-05-21T10:48:51.763Z,24.78
2019-05-21T10:49:51.746Z,12.18
2019-05-21T10:50:51.730Z,26.13
2019-05-21T10:51:51.731Z,19.44
2019-05-21T10:52:51.741Z,16.26
2019-05-21T10:53:51.728Z,34.11
2019-05-21T10:54:51.704Z,17.77
2019-05-21T10:55:51.674Z,18.42
2019-05-21T10:56:51.665Z,13.01
2019-05-21T10:57:51.670Z,29.77
2019-05-21T10:58:51.640Z,21.64
2019-05-21T10:59:51.633Z,33.07
2019-05-21T11:00:51.622Z,22.93
2019-05-21T11:01:51.652Z,17.52
2019-05-21T11:02:51.703Z,20.38
2019-05-21T11:03:51.589Z,32.30
2019-05-21T11:04:51.581Z,12.74
2019-05-21T11:06:08.603Z,13.25
2019-05-21T11:06:52.557Z,14.42
2019-05-21T11:07:51.539Z,19.95
2019-05-21T11:08:51.529Z,28.56
2019-05-21T11:09:51.535Z,31.35
2019-05-21T11:10:51.528Z,31.01
2019-05-21T11:11:51.511Z,28.29
2019-05-21T11:12:51.484Z,25.21
2019-05-21T11:13:51.479Z,20.66
2019-05-21T11:14:51.471Z,14.37
2019-05-21T11:15:51.471Z,18.67
2019-05-21T11:16:51.451Z,8.83
2019-05-21T11:18:09.033Z,21.66
2019-05-21T11:18:52.420Z,30.23
2019-05-21T11:19:51.411Z,8.42
2019-05-21T11:20:51.801Z,18.40
2019-05-21T11:21:51.389Z,28.95
2019-05-21T11:22:51.386Z,7.83
2019-05-21T11:23:51.419Z,24.61
2019-05-21T11:24:51.351Z,33.20
2019-05-21T11:25:51.349Z,8.68
2019-05-21T11:26:51.351Z,9.25
2019-05-21T11:27:51.324Z,30.61
2019-05-21T11:28:51.329Z,24.00
2019-05-21T11:29:51.326Z,30.72
2019-05-21T11:30:51.772Z,14.88
2019-05-21T11:31:57.150Z,18.42
2019-05-21T11:32:52.263Z,15.82
2019-05-21T11:33:51.266Z,20.87
2019-05-21T11:34:51.242Z,18.88
2019-05-21T11:35:51.227Z,22.92
2019-05-21T11:36:51.222Z,14.07
2019-05-21T11:37:51.222Z,17.48
2019-05-21T11:38:51.207Z,34.00
2019-05-21T11:39:51.191Z,28.05
2019-05-21T11:40:51.496Z,26.49
2019-05-21T11:41:51.720Z,26.99
2019-05-21T11:42:53.119Z,23.77
2019-05-21T11:43:51.164Z,24.49
2019-05-21T11:44:51.136Z,22.53
2019-05-21T11:45:51.137Z,22.41
2019-05-21T11:46:51.112Z,18.47
2019-05-21T11:47:54.424Z,13.67
2019-05-21T11:48:51.133Z,19.05
2019-05-21T11:49:51.077Z,13.99
2019-05-21T11:50:51.059Z,19.68
2019-05-21T11:51:51.052Z,10.08
2019-05-21T11:52:51.040Z,13.66
2019-05-21T11:53:51.223Z,13.60
2019-05-21T11:54:51.032Z,14.39
2019-05-21T11:55:51.047Z,10.51
2019-05-21T11:56:50.996Z,12.34
2019-05-21T11:57:50.996Z,8.24
2019-05-21T11:58:51.039Z,5.40
2019-05-21T11:59:50.991Z,2.94
2019-05-21T12:00:50.966Z,3.58
2019-05-21T12:01:50.944Z,3.47
2019-05-21T12:02:50.929Z,10.14
2019-05-21T12:03:50.929Z,-4.40
2019-05-21T12:04:50.914Z,5.30
2019-05-21T12:05:50.961Z,4.45
2019-05-21T12:06:50.878Z,4.28
2019-05-21T12:07:50.867Z,2.21
2019-05-21T12:08:56.599Z,3.74
2019-05-21T12:09:51.865Z,7.02
2019-05-21T12:10:50.850Z,-2.76
2019-05-21T12:11:50.822Z,8.85
2019-05-21T12:12:50.862Z,4.11
2019-05-21T12:13:50.801Z,1.99
2019-05-21T12:14:50.807Z,4.78
2019-05-21T12:15:50.783Z,1.27
2019-05-21T12:16:50.774Z,3.01
2019-05-21T12:17:50.764Z,2.67
2019-05-21T12:18:50.839Z,0.62
2019-05-21T12:19:50.806Z,-4.46
2019-05-21T12:20:50.779Z,0.12
2019-05-21T12:21:50.731Z,-2.08
2019-05-21T12:22:50.716Z,-3.56
2019-05-21T12:23:50.699Z,3.70
2019-05-21T12:24:50.696Z,2.20
2019-05-21T12:25:50.701Z,-2.20
2019-05-21T12:26:50.680Z,5.38
2019-05-21T12:27:50.672Z,0.26
2019-05-21T12:28:50.687Z,2.44
2019-05-21T12:29:50.630Z,5.08
2019-05-21T12:30:50.620Z,5.83
2019-05-21T12:31:50.617Z,-0.35
2019-05-21T12:32:50.598Z,1.85
2019-05-21T12:33:50.592Z,-0.48
2019-05-21T12:34:50.586Z,-0.57
2019-05-21T12:35:50.555Z,5.22
2019-05-21T12:36:50.546Z,1.62
2019-05-21T12:37:50.537Z,5.90
2019-05-21T12:38:50.533Z,3.62
2019-05-21T12:39:50.521Z,6.01
2019-05-21T12:40:50.514Z,3.15
2019-05-21T12:41:50.485Z,2.79
2019-05-21T12:42:50.486Z,4.93
2019-05-21T12:43:50.474Z,12.70
2019-05-21T12:44:50.462Z,-6.84
2019-05-21T12:45:50.607Z,1.52
2019-05-21T12:46:50.433Z,3.68
2019-05-21T12:47:50.838Z,3.24
2019-05-21T12:48:50.416Z,-2.15
2019-05-21T12:49:50.406Z,7.23
2019-05-21T12:50:50.410Z,4.17
2019-05-21T12:51:50.418Z,1.80
2019-05-21T12:52:50.386Z,0.90
2019-05-21T12:53:50.352Z,3.11
2019-05-21T12:54:50.354Z,2.53